createdAt,value
2023-03-12T00:00:54.189Z,-1.40
2023-03-12T00:03:34.312Z,-1.44
2023-03-12T00:06:10.196Z,-1.44
2023-03-12T00:08:38.248Z,-1.41
2023-03-12T00:11:13.304Z,-1.39
2023-03-12T00:13:42.516Z,-1.37
2023-03-12T00:16:12.997Z,-1.36
2023-03-12T00:18:41.255Z,-1.37
2023-03-12T00:21:08.810Z,-1.37
2023-03-12T00:23:36.213Z,-1.40
2023-03-12T00:26:06.222Z,-1.42
2023-03-12T00:28:35.108Z,-1.42
2023-03-12T00:31:03.971Z,-1.47
2023-03-12T00:33:31.126Z,-1.49
2023-03-12T00:36:01.019Z,-1.50
2023-03-12T00:38:28.226Z,-1.48
2023-03-12T00:40:55.092Z,-1.50
2023-03-12T00:43:22.403Z,-1.48
2023-03-12T00:45:49.347Z,-1.49
2023-03-12T00:48:16.533Z,-1.49
2023-03-12T00:50:43.401Z,-1.50
2023-03-12T00:53:10.536Z,-1.52
2023-03-12T00:55:37.393Z,-1.49
2023-03-12T00:58:04.538Z,-1.51
2023-03-12T01:00:31.910Z,-1.52
2023-03-12T01:02:59.161Z,-1.52
2023-03-12T01:05:26.198Z,-1.55
2023-03-12T01:07:53.768Z,-1.58
2023-03-12T01:10:22.174Z,-1.59
2023-03-12T01:12:49.397Z,-1.64
2023-03-12T01:15:17.767Z,-1.63
2023-03-12T01:17:44.989Z,-1.69
2023-03-12T01:20:12.592Z,-1.64
2023-03-12T01:22:40.224Z,-1.60
2023-03-12T01:25:07.567Z,-1.61
2023-03-12T01:27:34.816Z,-1.60
2023-03-12T01:30:02.072Z,-1.60
2023-03-12T01:32:29.365Z,-1.63
2023-03-12T01:34:58.362Z,-1.68
2023-03-12T01:37:25.729Z,-1.68
2023-03-12T01:39:52.678Z,-1.72
2023-03-12T01:42:20.006Z,-1.73
2023-03-12T01:44:52.686Z,-1.69
2023-03-12T01:47:20.910Z,-1.71
2023-03-12T01:49:50.082Z,-1.65
2023-03-12T01:52:22.803Z,-1.63
2023-03-12T01:54:53.039Z,-1.63
2023-03-12T01:57:24.792Z,-1.58
2023-03-12T01:59:59.976Z,-1.56
2023-03-12T02:02:29.984Z,-1.56
2023-03-12T02:05:11.657Z,-1.56
2023-03-12T02:07:38.953Z,-1.58
2023-03-12T02:10:06.198Z,-1.62
2023-03-12T02:12:33.394Z,-1.65
2023-03-12T02:15:00.383Z,-1.66
2023-03-12T02:17:27.679Z,-1.71
2023-03-12T02:20:09.265Z,-1.72
2023-03-12T02:22:37.908Z,-1.70
2023-03-12T02:25:31.075Z,-1.69
2023-03-12T02:28:00.591Z,-1.69
2023-03-12T02:30:30.711Z,-1.68
2023-03-12T02:33:01.721Z,-1.68
2023-03-12T02:35:28.670Z,-1.73
2023-03-12T02:37:57.158Z,-1.76
2023-03-12T02:40:31.776Z,-1.85
2023-03-12T02:42:59.353Z,-1.85
2023-03-12T02:45:26.825Z,-1.86
2023-03-12T02:47:53.977Z,-1.84
2023-03-12T02:50:21.320Z,-1.84
2023-03-12T02:52:48.522Z,-1.86
2023-03-12T02:55:15.423Z,-1.92
2023-03-12T02:57:43.878Z,-1.98
2023-03-12T03:00:15.061Z,-2.01
2023-03-12T03:02:43.538Z,-2.05
2023-03-12T03:05:11.813Z,-2.07
2023-03-12T03:07:39.290Z,-2.17
2023-03-12T03:10:07.285Z,-2.21
2023-03-12T03:12:36.665Z,-2.26
2023-03-12T03:15:04.449Z,-2.32
2023-03-12T03:17:31.626Z,-2.37
2023-03-12T03:19:58.494Z,-2.43
2023-03-12T03:22:25.664Z,-2.49
2023-03-12T03:24:53.766Z,-2.48
2023-03-12T03:27:21.210Z,-2.51
2023-03-12T03:32:15.380Z,-2.53
2023-03-12T03:34:42.430Z,-2.53
2023-03-12T03:37:10.027Z,-2.55
2023-03-12T03:39:36.943Z,-2.53
2023-03-12T03:42:04.268Z,-2.53
2023-03-12T03:44:31.416Z,-2.56
2023-03-12T03:46:58.969Z,-2.64
2023-03-12T03:49:25.873Z,-2.62
2023-03-12T03:51:53.018Z,-2.63
2023-03-12T03:54:20.196Z,-2.66
2023-03-12T03:56:47.736Z,-2.65
2023-03-12T03:59:14.725Z,-2.67
2023-03-12T04:01:41.919Z,-2.64
2023-03-12T04:04:08.902Z,-2.65
2023-03-12T04:06:36.644Z,-2.69
2023-03-12T04:09:04.131Z,-2.68
2023-03-12T04:11:31.432Z,-2.73
2023-03-12T04:13:58.599Z,-2.75
2023-03-12T04:16:26.322Z,-2.78
2023-03-12T04:18:53.269Z,-2.79
2023-03-12T04:21:20.577Z,-2.76
2023-03-12T04:23:47.522Z,-2.75
2023-03-12T04:26:14.916Z,-2.67
2023-03-12T04:28:41.852Z,-2.63
2023-03-12T04:31:11.626Z,-2.65
2023-03-12T04:33:39.958Z,-2.67
2023-03-12T04:36:08.097Z,-2.70
2023-03-12T04:38:35.147Z,-2.70
2023-03-12T04:41:07.446Z,-2.75
2023-03-12T04:43:35.093Z,-2.78
2023-03-12T04:46:03.044Z,-2.74
2023-03-12T04:48:30.340Z,-2.75
2023-03-12T04:50:57.555Z,-2.75
2023-03-12T04:53:25.049Z,-2.75
2023-03-12T04:55:52.861Z,-2.79
2023-03-12T04:58:21.357Z,-2.74
2023-03-12T05:00:49.654Z,-2.70
2023-03-12T05:03:17.601Z,-2.61
2023-03-12T05:05:45.086Z,-2.55
2023-03-12T05:08:11.991Z,-2.34
2023-03-12T05:10:39.399Z,-2.10
2023-03-12T05:13:17.449Z,-1.95
2023-03-12T05:15:45.041Z,-1.91
2023-03-12T05:18:11.939Z,-1.93
2023-03-12T05:20:39.849Z,-1.96
2023-03-12T05:23:06.755Z,-1.95
2023-03-12T05:25:33.917Z,-1.92
2023-03-12T05:28:00.859Z,-1.93
2023-03-12T05:30:28.047Z,-1.78
2023-03-12T05:32:55.051Z,-1.56
2023-03-12T05:35:23.157Z,-1.31
2023-03-12T05:37:50.525Z,-0.89
2023-03-12T05:40:17.788Z,-0.53
2023-03-12T05:42:44.631Z,-0.19
2023-03-12T05:45:11.945Z,0.13
2023-03-12T05:47:38.933Z,0.51
2023-03-12T05:50:06.663Z,0.93
2023-03-12T05:52:33.719Z,1.25
2023-03-12T05:55:00.869Z,1.43
2023-03-12T05:57:27.787Z,1.66
2023-03-12T05:59:54.925Z,1.92
2023-03-12T06:02:21.786Z,2.18
2023-03-12T06:04:49.008Z,2.22
2023-03-12T06:07:15.912Z,2.20
2023-03-12T06:09:43.226Z,2.50
2023-03-12T06:12:10.092Z,2.81
2023-03-12T06:14:37.346Z,2.98
2023-03-12T06:17:04.220Z,2.89
2023-03-12T06:19:31.516Z,2.63
2023-03-12T06:21:58.614Z,2.66
2023-03-12T06:24:25.931Z,2.67
2023-03-12T06:26:52.879Z,2.85
2023-03-12T06:29:20.076Z,2.82
2023-03-12T06:31:48.414Z,3.06
2023-03-12T06:34:16.909Z,3.48
2023-03-12T06:36:44.120Z,3.65
2023-03-12T06:39:11.281Z,3.68
2023-03-12T06:41:38.236Z,3.70
2023-03-12T06:44:06.541Z,3.75
2023-03-12T06:46:33.838Z,4.06
2023-03-12T06:49:01.063Z,4.59
2023-03-12T06:51:28.176Z,4.79
2023-03-12T06:53:55.452Z,4.34
2023-03-12T06:56:22.309Z,4.28
2023-03-12T06:58:50.280Z,4.42
2023-03-12T07:01:17.132Z,4.75
2023-03-12T07:03:44.387Z,4.66
2023-03-12T07:06:22.238Z,4.76
2023-03-12T07:08:49.900Z,4.71
2023-03-12T07:11:17.784Z,4.42
2023-03-12T07:13:45.091Z,4.59
2023-03-12T07:16:12.607Z,4.95
2023-03-12T07:18:39.883Z,5.25
2023-03-12T07:21:07.150Z,5.33
2023-03-12T07:23:34.384Z,5.32
2023-03-12T07:26:01.336Z,5.16
2023-03-12T07:28:28.662Z,5.09
2023-03-12T07:31:01.034Z,5.25
2023-03-12T07:33:28.423Z,5.40
2023-03-12T07:35:55.513Z,5.59
2023-03-12T07:38:22.830Z,5.56
2023-03-12T07:40:54.928Z,5.84
2023-03-12T07:43:22.739Z,5.81
2023-03-12T07:45:50.586Z,5.95
2023-03-12T07:48:20.154Z,5.83
2023-03-12T07:50:47.802Z,5.61
2023-03-12T07:53:15.059Z,5.35
2023-03-12T07:55:44.561Z,4.72
2023-03-12T07:58:13.087Z,4.33
2023-03-12T08:00:40.244Z,3.98
2023-03-12T08:03:07.759Z,3.61
2023-03-12T08:05:35.122Z,3.23
2023-03-12T08:08:02.413Z,3.18
2023-03-12T08:10:29.385Z,2.96
2023-03-12T08:12:56.775Z,2.73
2023-03-12T08:15:23.780Z,2.88
2023-03-12T08:17:51.217Z,3.47
2023-03-12T08:20:18.191Z,4.32
2023-03-12T08:22:45.336Z,4.95
2023-03-12T08:25:12.593Z,5.29
2023-03-12T08:27:39.893Z,5.47
2023-03-12T08:30:07.290Z,6.19
2023-03-12T08:32:34.677Z,6.58
2023-03-12T08:35:01.720Z,6.95
2023-03-12T08:37:29.043Z,7.34
2023-03-12T08:39:55.953Z,6.89
2023-03-12T08:42:23.200Z,6.65
2023-03-12T08:44:50.173Z,6.63
2023-03-12T08:47:17.381Z,6.99
2023-03-12T08:49:44.408Z,7.30
2023-03-12T08:52:11.576Z,7.41
2023-03-12T08:54:38.483Z,7.43
2023-03-12T08:57:05.731Z,7.24
2023-03-12T08:59:32.572Z,7.04
2023-03-12T09:01:59.811Z,6.90
2023-03-12T09:04:26.721Z,7.16
2023-03-12T09:06:53.897Z,7.44
2023-03-12T09:09:20.731Z,7.54
2023-03-12T09:11:47.895Z,7.57
2023-03-12T09:14:57.561Z,7.75
2023-03-12T09:17:02.340Z,8.06
2023-03-12T09:19:29.563Z,8.05
2023-03-12T09:21:57.866Z,7.67
2023-03-12T09:24:25.043Z,8.22
2023-03-12T09:26:52.310Z,8.58
2023-03-12T09:29:19.210Z,8.43
2023-03-12T09:31:46.404Z,9.04
2023-03-12T09:34:13.340Z,8.92
2023-03-12T09:36:40.546Z,9.11
2023-03-12T09:39:07.727Z,9.20
2023-03-12T09:41:39.651Z,9.09
2023-03-12T09:44:30.669Z,8.61
2023-03-12T09:47:05.487Z,8.17
2023-03-12T09:49:45.299Z,8.07
2023-03-12T09:52:30.809Z,8.42
2023-03-12T09:55:03.683Z,8.60
2023-03-12T09:57:30.894Z,8.62
2023-03-12T09:59:58.100Z,8.83
2023-03-12T10:02:38.943Z,8.70
2023-03-12T10:05:11.857Z,8.49
2023-03-12T10:07:48.283Z,8.57
2023-03-12T10:10:28.096Z,8.52
2023-03-12T10:13:36.907Z,8.88
2023-03-12T10:16:23.602Z,8.61
2023-03-12T10:19:09.421Z,8.40
2023-03-12T10:21:49.372Z,8.21
2023-03-12T10:24:25.179Z,7.88
2023-03-12T10:26:55.950Z,7.45
2023-03-12T10:29:29.031Z,7.40
2023-03-12T10:32:11.196Z,7.22
2023-03-12T10:34:43.090Z,7.48
2023-03-12T10:37:30.261Z,7.56
2023-03-12T10:40:00.320Z,7.54
2023-03-12T10:42:29.877Z,7.78
2023-03-12T10:45:19.602Z,7.90
2023-03-12T10:47:53.444Z,7.44
2023-03-12T10:50:26.896Z,7.53
2023-03-12T10:53:14.976Z,8.28
2023-03-12T10:55:42.221Z,9.25
2023-03-12T10:58:22.912Z,10.11
2023-03-12T11:01:01.417Z,10.09
2023-03-12T11:03:29.422Z,10.31
2023-03-12T11:06:00.982Z,9.94
2023-03-12T11:08:33.068Z,9.82
2023-03-12T11:11:01.879Z,10.57
2023-03-12T11:13:33.590Z,10.60
2023-03-12T11:16:20.772Z,9.49
2023-03-12T11:19:03.878Z,8.34
2023-03-12T11:21:35.434Z,8.00
2023-03-12T11:24:10.305Z,7.50
2023-03-12T11:26:40.442Z,6.75
2023-03-12T11:29:13.454Z,6.35
2023-03-12T11:31:57.884Z,6.53
2023-03-12T11:34:31.282Z,7.38
2023-03-12T11:37:06.691Z,8.37
2023-03-12T11:39:33.559Z,8.98
2023-03-12T11:42:14.665Z,9.57
2023-03-12T11:45:14.995Z,10.11
2023-03-12T11:48:15.889Z,10.51
2023-03-12T11:51:01.185Z,10.86
2023-03-12T11:53:42.568Z,10.50
2023-03-12T11:56:38.663Z,10.02
2023-03-12T11:59:42.920Z,8.95
2023-03-12T12:02:21.676Z,8.11
2023-03-12T12:05:00.655Z,7.72
2023-03-12T12:07:36.274Z,7.63
2023-03-12T12:10:40.521Z,7.60
2023-03-12T12:13:26.094Z,7.47
2023-03-12T12:16:38.450Z,7.29
2023-03-12T12:19:05.838Z,7.22
2023-03-12T12:22:04.233Z,7.72
2023-03-12T12:24:51.536Z,7.96
2023-03-12T12:27:26.127Z,7.99
2023-03-12T12:30:11.591Z,8.06
2023-03-12T12:32:41.945Z,8.49
2023-03-12T12:35:29.855Z,8.70
2023-03-12T12:37:59.570Z,8.77
2023-03-12T12:40:54.856Z,8.71
2023-03-12T12:43:37.887Z,8.96
2023-03-12T12:46:10.482Z,9.10
2023-03-12T12:48:57.399Z,9.28
2023-03-12T12:51:30.353Z,9.29
2023-03-12T12:54:16.853Z,9.08
2023-03-12T12:57:11.293Z,9.32
2023-03-12T12:59:50.938Z,9.18
2023-03-12T13:02:22.190Z,9.24
2023-03-12T13:04:50.114Z,9.30
2023-03-12T13:07:20.171Z,9.43
2023-03-12T13:09:52.951Z,9.19
2023-03-12T13:12:55.206Z,8.89
2023-03-12T13:15:28.493Z,9.21
2023-03-12T13:17:55.416Z,9.48
2023-03-12T13:20:30.539Z,9.55
2023-03-12T13:23:21.689Z,9.77
2023-03-12T13:26:15.164Z,9.76
2023-03-12T13:29:06.125Z,9.03
2023-03-12T13:31:35.570Z,8.74
2023-03-12T13:34:17.750Z,8.79
2023-03-12T13:36:47.367Z,8.62
2023-03-12T13:39:17.304Z,8.27
2023-03-12T13:41:54.941Z,8.06
2023-03-12T13:44:27.641Z,8.12
2023-03-12T13:47:15.921Z,8.18
2023-03-12T13:49:59.980Z,8.16
2023-03-12T13:52:30.860Z,8.19
2023-03-12T13:55:03.096Z,7.90
2023-03-12T13:58:05.897Z,7.88
2023-03-12T14:00:37.294Z,7.67
2023-03-12T14:03:14.801Z,7.37
2023-03-12T14:05:52.525Z,6.92
2023-03-12T14:08:40.513Z,6.74
2023-03-12T14:11:33.593Z,6.48
2023-03-12T14:14:25.799Z,6.31
2023-03-12T14:16:56.752Z,6.21
2023-03-12T14:19:27.071Z,6.16
2023-03-12T14:21:56.338Z,6.10
2023-03-12T14:24:34.415Z,6.04
2023-03-12T14:27:04.815Z,5.95
2023-03-12T14:29:38.888Z,5.90
2023-03-12T14:32:17.271Z,5.92
2023-03-12T14:35:16.532Z,5.82
2023-03-12T14:37:51.396Z,5.70
2023-03-12T14:40:46.361Z,5.68
2023-03-12T14:43:29.102Z,5.60
2023-03-12T14:45:59.151Z,5.53
2023-03-12T14:48:35.363Z,5.51
2023-03-12T14:51:05.470Z,5.50
2023-03-12T14:53:35.546Z,5.45
2023-03-12T14:56:12.312Z,5.45
2023-03-12T14:58:45.560Z,5.43
2023-03-12T15:01:17.811Z,5.41
2023-03-12T15:03:49.400Z,5.27
2023-03-12T15:06:29.459Z,5.18
2023-03-12T15:08:58.092Z,5.16
2023-03-12T15:11:28.475Z,5.15
2023-03-12T15:14:01.791Z,5.12
2023-03-12T15:16:29.434Z,5.12
2023-03-12T15:18:57.251Z,5.10
2023-03-12T15:21:25.310Z,5.04
2023-03-12T15:23:52.500Z,5.00
2023-03-12T15:26:19.681Z,4.99
2023-03-12T15:29:14.616Z,4.97
2023-03-12T15:31:43.245Z,5.01
2023-03-12T15:34:13.012Z,4.95
2023-03-12T15:36:49.824Z,4.90
2023-03-12T15:39:26.783Z,4.87
2023-03-12T15:41:56.405Z,4.77
2023-03-12T15:44:26.358Z,4.78
2023-03-12T15:47:10.929Z,4.70
2023-03-12T15:49:39.034Z,4.68
2023-03-12T15:52:18.430Z,4.61
2023-03-12T15:55:00.404Z,4.53
2023-03-12T15:57:28.311Z,4.46
2023-03-12T16:00:16.964Z,4.39
2023-03-12T16:03:15.281Z,4.37
2023-03-12T16:05:42.758Z,4.36
2023-03-12T16:08:20.681Z,4.32
2023-03-12T16:10:50.863Z,4.24
2023-03-12T16:13:21.186Z,4.22
2023-03-12T16:15:48.759Z,4.16
2023-03-12T16:18:19.283Z,4.09
2023-03-12T16:20:47.161Z,4.05
2023-03-12T16:23:14.867Z,4.00
2023-03-12T16:25:44.335Z,3.91
2023-03-12T16:28:14.485Z,3.84
2023-03-12T16:30:41.884Z,3.83
2023-03-12T16:33:15.372Z,3.81
2023-03-12T16:35:42.746Z,3.78
2023-03-12T16:38:10.494Z,3.75
2023-03-12T16:40:41.227Z,3.71
2023-03-12T16:43:19.113Z,3.67
2023-03-12T16:45:47.585Z,3.65
2023-03-12T16:48:18.584Z,3.62
2023-03-12T16:50:52.452Z,3.58
2023-03-12T16:53:19.951Z,3.52
2023-03-12T16:55:56.499Z,3.46
2023-03-12T16:58:25.837Z,3.43
2023-03-12T17:00:54.663Z,3.38
2023-03-12T17:03:31.735Z,3.28
2023-03-12T17:06:00.011Z,3.23
2023-03-12T17:08:27.464Z,3.19
2023-03-12T17:10:55.708Z,3.18
2023-03-12T17:13:25.936Z,3.15
2023-03-12T17:15:53.268Z,3.13
2023-03-12T17:18:21.453Z,3.09
2023-03-12T17:20:50.975Z,3.02
2023-03-12T17:23:18.348Z,2.94
2023-03-12T17:25:46.068Z,2.90
2023-03-12T17:28:15.458Z,2.90
2023-03-12T17:30:43.124Z,2.82
2023-03-12T17:33:13.958Z,2.79
2023-03-12T17:35:42.083Z,2.74
2023-03-12T17:38:10.351Z,2.66
2023-03-12T17:40:44.615Z,2.62
2023-03-12T17:43:12.453Z,2.56
2023-03-12T17:45:39.872Z,2.47
2023-03-12T17:48:07.201Z,2.44
2023-03-12T17:50:34.511Z,2.37
2023-03-12T17:53:01.899Z,2.29
2023-03-12T17:55:28.757Z,2.30
2023-03-12T17:57:56.026Z,2.33
2023-03-12T18:00:23.232Z,2.33
2023-03-12T18:02:50.661Z,2.32
2023-03-12T18:05:17.781Z,2.24
2023-03-12T18:07:47.595Z,2.24
2023-03-12T18:10:15.177Z,2.20
2023-03-12T18:12:42.556Z,2.17
2023-03-12T18:15:15.262Z,2.12
2023-03-12T18:17:44.911Z,2.11
2023-03-12T18:20:16.702Z,2.08
2023-03-12T18:22:45.460Z,2.06
2023-03-12T18:25:12.837Z,2.06
2023-03-12T18:27:40.317Z,2.01
2023-03-12T18:30:11.499Z,2.01
2023-03-12T18:32:40.168Z,2.00
2023-03-12T18:35:08.482Z,1.96
2023-03-12T18:37:35.801Z,1.93
2023-03-12T18:40:02.868Z,1.89
2023-03-12T18:42:30.557Z,1.82
2023-03-12T18:44:57.504Z,1.80
2023-03-12T18:47:24.835Z,1.74
2023-03-12T18:49:55.063Z,1.66
2023-03-12T18:52:22.637Z,1.60
2023-03-12T18:54:49.599Z,1.48
2023-03-12T18:57:16.799Z,1.38
2023-03-12T18:59:46.114Z,1.31
2023-03-12T19:02:13.545Z,1.18
2023-03-12T19:04:40.481Z,1.15
2023-03-12T19:07:10.540Z,1.09
2023-03-12T19:09:37.764Z,1.00
2023-03-12T19:12:05.243Z,0.92
2023-03-12T19:14:32.048Z,0.78
2023-03-12T19:16:59.265Z,0.64
2023-03-12T19:19:26.464Z,0.57
2023-03-12T19:21:53.824Z,0.48
2023-03-12T19:24:20.719Z,0.37
2023-03-12T19:26:47.919Z,0.22
2023-03-12T19:29:16.547Z,0.09
2023-03-12T19:31:44.009Z,0.02
2023-03-12T19:34:10.956Z,-0.06
2023-03-12T19:36:38.223Z,-0.13
2023-03-12T19:39:15.232Z,-0.23
2023-03-12T19:41:47.663Z,-0.33
2023-03-12T19:44:14.560Z,-0.40
2023-03-12T19:46:43.337Z,-0.51
2023-03-12T19:49:10.470Z,-0.59
2023-03-12T19:51:40.233Z,-0.66
2023-03-12T19:54:07.759Z,-0.73
2023-03-12T19:56:35.014Z,-0.76
2023-03-12T19:59:01.932Z,-0.76
2023-03-12T20:01:29.129Z,-0.81
2023-03-12T20:03:55.965Z,-0.88
2023-03-12T20:06:23.222Z,-0.96
2023-03-12T20:08:50.218Z,-0.98
2023-03-12T20:11:17.456Z,-0.99
2023-03-12T20:13:45.443Z,-1.02
2023-03-12T20:16:14.060Z,-1.08
2023-03-12T20:18:41.075Z,-1.10
2023-03-12T20:21:08.491Z,-1.10
2023-03-12T20:23:35.532Z,-1.13
2023-03-12T20:26:03.175Z,-1.22
2023-03-12T20:28:30.152Z,-1.21
2023-03-12T20:30:57.516Z,-1.23
2023-03-12T20:33:24.489Z,-1.27
2023-03-12T20:35:51.834Z,-1.29
2023-03-12T20:38:18.778Z,-1.30
2023-03-12T20:40:46.581Z,-1.34
2023-03-12T20:43:13.546Z,-1.34
2023-03-12T20:45:40.936Z,-1.39
2023-03-12T20:48:08.170Z,-1.36
2023-03-12T20:50:37.861Z,-1.37
2023-03-12T20:53:04.755Z,-1.35
2023-03-12T20:55:31.993Z,-1.32
2023-03-12T20:57:59.635Z,-1.28
2023-03-12T21:00:26.955Z,-1.26
2023-03-12T21:02:53.855Z,-1.22
2023-03-12T21:05:23.908Z,-1.20
2023-03-12T21:07:53.011Z,-1.21
2023-03-12T21:10:21.096Z,-1.19
2023-03-12T21:12:47.957Z,-1.15
2023-03-12T21:15:15.392Z,-1.09
2023-03-12T21:17:42.510Z,-1.06
2023-03-12T21:20:13.600Z,-1.02
2023-03-12T21:22:43.371Z,-0.98
2023-03-12T21:25:11.892Z,-0.97
2023-03-12T21:27:49.844Z,-0.94
2023-03-12T21:30:18.418Z,-0.89
2023-03-12T21:32:45.466Z,-0.81
2023-03-12T21:35:12.727Z,-0.74
2023-03-12T21:37:40.007Z,-0.70
2023-03-12T21:40:09.097Z,-0.66
2023-03-12T21:42:36.079Z,-0.65
2023-03-12T21:45:03.692Z,-0.59
2023-03-12T21:47:30.652Z,-0.58
2023-03-12T21:49:58.194Z,-0.55
2023-03-12T21:52:25.156Z,-0.55
2023-03-12T21:54:52.402Z,-0.59
2023-03-12T21:57:19.319Z,-0.60
2023-03-12T21:59:46.586Z,-0.58
2023-03-12T22:02:14.613Z,-0.54
2023-03-12T22:04:41.890Z,-0.48
2023-03-12T22:07:08.849Z,-0.42
2023-03-12T22:09:36.147Z,-0.39
2023-03-12T22:12:03.592Z,-0.38
2023-03-12T22:14:30.845Z,-0.35
2023-03-12T22:16:58.186Z,-0.37
2023-03-12T22:19:25.345Z,-0.38
2023-03-12T22:21:52.544Z,-0.42
2023-03-12T22:24:19.958Z,-0.42
2023-03-12T22:26:46.981Z,-0.41
2023-03-12T22:29:14.213Z,-0.43
2023-03-12T22:31:41.292Z,-0.42
2023-03-12T22:34:09.089Z,-0.41
2023-03-12T22:36:38.640Z,-0.43
2023-03-12T22:39:05.937Z,-0.41
2023-03-12T22:41:33.157Z,-0.40
2023-03-12T22:44:05.946Z,-0.38
2023-03-12T22:46:33.621Z,-0.34
2023-03-12T22:49:02.534Z,-0.30
2023-03-12T22:51:31.774Z,-0.27
2023-03-12T22:53:59.094Z,-0.24
2023-03-12T22:56:26.605Z,-0.21
2023-03-12T22:58:55.465Z,-0.18
2023-03-12T23:01:23.317Z,-0.17
2023-03-12T23:03:51.188Z,-0.13
2023-03-12T23:06:26.388Z,-0.11
2023-03-12T23:08:55.159Z,-0.07
2023-03-12T23:11:25.298Z,-0.02
2023-03-12T23:13:53.525Z,-0.02
2023-03-12T23:16:23.001Z,0.01
2023-03-12T23:18:50.889Z,0.03
2023-03-12T23:21:21.825Z,0.04
2023-03-12T23:23:50.270Z,0.05
2023-03-12T23:26:21.871Z,0.05
2023-03-12T23:28:51.179Z,0.06
2023-03-12T23:31:18.409Z,0.04
2023-03-12T23:33:45.701Z,0.03
2023-03-12T23:36:15.387Z,0.04
2023-03-12T23:38:43.484Z,0.07
2023-03-12T23:41:19.084Z,0.11
2023-03-12T23:43:46.333Z,0.15
2023-03-12T23:46:14.160Z,0.18
2023-03-12T23:48:41.745Z,0.23
2023-03-12T23:51:29.637Z,0.27
2023-03-12T23:53:59.356Z,0.33
2023-03-12T23:56:30.816Z,0.38
2023-03-12T23:58:58.011Z,0.44
